Latest Weather Observations for Wulungurru (Kintore)

IDD60801

Issued at 6:31 pm CST Monday 27 February 2017 (issued every 30 minutes, with the page automatically refreshed every 10 minutes)

About weather observations | Map of weather stations | Latest weather observations for NT | Other Formats
Station Details ID: 015664 Name: WALUNGURRU AIRPORT Lat: -23.27 Lon: 129.38 Height: 454.3 m
Data from the previous 72 hours. | See also: Recent months at Wulungurru (Kintore)
Date/Time
CST
Temp
°C
App
Temp
°C
Dew
Point
°C
Rel
Hum
%
Delta-T
°C
Wind Press
QNH
hPa
Press
MSL
hPa
Rain since
9am
mm
Dir  Spd
km/h
Gust
km/h
Spd
kts
Gust
kts
27/06:30pm 36.9 33.7 5.0 14 17.6 S 11 15 6 8 1010.9 - 0.0
27/06:00pm 37.7 34.6 5.6 14 17.9 SSE 11 19 6 10 1010.8 1007.4 0.0
27/05:30pm 38.3 37.4 6.1 14 18.2 CALM 0 6 0 3 1010.8 - 0.0
27/05:00pm 38.0 35.7 5.9 14 18.0 ESE 7 9 4 5 1011.0 - 0.0
27/04:30pm 36.6 33.3 4.8 14 17.4 ESE 11 19 6 10 1011.0 - 0.0
27/04:00pm 37.2 33.5 4.2 13 18.0 NE 13 20 7 11 1011.1 - 0.0
27/03:30pm 37.7 34.6 5.6 14 17.9 NE 11 17 6 9 1011.3 - 0.0
27/03:00pm 37.7 35.0 5.6 14 17.9 SW 9 13 5 7 1011.5 1008.1 0.0
27/02:30pm 37.8 34.5 4.7 13 18.2 SSE 11 19 6 10 1012.1 - 0.0
27/02:00pm 38.0 35.4 5.9 14 18.0 NNW 9 15 5 8 1012.6 - 0.0
27/01:30pm 38.2 35.8 7.0 15 17.8 WNW 9 15 5 8 1013.0 - 0.0
27/01:00pm 37.6 35.1 6.6 15 17.6 E 9 15 5 8 1013.5 - 0.0
27/12:30pm 37.6 33.8 5.6 14 17.8 NE 15 24 8 13 1014.0 - 0.0
27/12:00pm 36.3 31.1 3.5 13 17.6 NE 20 28 11 15 1014.4 1011.0 0.0
27/11:30am 36.4 30.8 3.6 13 17.6 ENE 22 30 12 16 1014.7 - 0.0
27/11:00am 35.0 29.0 3.5 14 16.8 ENE 24 35 13 19 1014.9 - 0.0
27/10:30am 33.8 26.9 2.6 14 16.3 ENE 28 35 15 19 1015.1 - 0.0
27/10:00am 32.8 25.9 2.8 15 15.6 ENE 28 39 15 21 1015.1 - 0.0
27/09:30am 32.0 25.4 2.1 15 15.3 ENE 26 37 14 20 1015.2 - 0.0
27/09:00am 30.3 23.4 2.5 17 14.2 ENE 28 39 15 21 1015.0 1011.6 0.0
27/08:30am 29.2 21.5 2.5 18 13.5 ENE 32 41 17 22 1014.8 - 0.0
27/08:00am 28.3 21.5 3.2 20 12.8 ENE 28 39 15 21 1014.4 - 0.0
27/07:30am 27.3 21.2 5.0 24 11.7 ENE 26 37 14 20 1014.0 - 0.0
27/07:00am 27.3 21.0 5.6 25 11.5 E 28 43 15 23 1013.6 - 0.0
27/06:30am 27.7 21.8 5.9 25 11.6 E 26 35 14 19 1013.4 - 0.0
27/06:00am 28.1 22.7 6.2 25 11.7 E 24 33 13 18 1013.1 1009.7 0.0
27/05:30am 28.6 23.5 6.1 24 12.1 E 22 32 12 17 1012.7 - 0.0
27/05:00am 28.6 24.0 6.7 25 11.9 E 20 28 11 15 1012.4 - 0.0
27/04:30am 29.8 24.8 6.5 23 12.7 ENE 22 33 12 18 1012.4 - 0.0
27/04:00am 30.8 26.1 6.0 21 13.5 E 20 26 11 14 1012.1 - 0.0
27/03:30am 31.3 26.1 5.7 20 13.9 E 22 32 12 17 1012.2 - 0.0
27/03:00am 31.8 27.5 5.3 19 14.3 ESE 17 22 9 12 1012.1 1008.6 0.0
27/02:30am 28.8 25.7 7.4 26 11.8 SSE 13 15 7 8 1012.1 - 0.0
27/02:00am 32.0 27.9 6.2 20 14.1 SE 17 20 9 11 1012.1 - 0.0
27/01:30am 32.3 28.1 5.7 19 14.5 ESE 17 20 9 11 1012.3 - 0.0
27/01:00am 32.5 27.8 5.9 19 14.5 ESE 20 28 11 15 1012.5 - 0.0
27/12:30am 31.8 27.5 6.8 21 13.8 SE 19 24 10 13 1012.9 - 0.0
27/12:00am 31.8 27.3 6.8 21 13.8 SE 20 30 11 16 1013.2 1009.8 0.0
 
Date/Time
CST
Temp
°C
App
Temp
°C
Dew
Point
°C
Rel
Hum
%
Delta-T
°C
Wind Press
QNH
hPa
Press
MSL
hPa
Rain since
9am
mm
Dir  Spd
km/h
Gust
km/h
Spd
kts
Gust
kts
26/11:30pm 31.3 27.0 7.1 22 13.4 SE 19 26 10 14 1013.4 - 0.0
26/11:00pm 31.8 27.8 6.8 21 13.8 SE 17 24 9 13 1013.5 - 0.0
26/10:30pm 32.6 28.2 6.7 20 14.3 SE 19 28 10 15 1013.3 - 0.0
26/10:00pm 31.8 28.0 7.5 22 13.6 SSE 17 22 9 12 1013.3 - 0.0
26/09:30pm 30.9 28.0 8.0 24 12.8 SSE 13 17 7 9 1013.1 - 0.0
26/09:00pm 32.8 29.6 8.3 22 13.9 SSE 15 24 8 13 1012.8 1009.4 0.0
26/08:30pm 33.2 30.2 7.9 21 14.3 SE 13 17 7 9 1012.4 - 0.0
26/08:00pm 31.9 29.8 8.2 23 13.4 SE 9 13 5 7 1011.9 - 0.0
26/07:30pm 33.8 31.0 7.0 19 15.0 ESE 11 17 6 9 1011.5 - 0.0
26/07:00pm 35.3 32.0 6.6 17 16.1 SE 13 17 7 9 1011.3 - 0.0
26/06:30pm 36.1 33.2 6.3 16 16.7 SSE 11 15 6 8 1011.0 - 0.0
26/06:00pm 37.4 35.1 7.3 16 17.2 SSE 9 17 5 9 1011.0 1007.6 0.0
26/05:30pm 36.9 34.7 6.0 15 17.3 ENE 7 11 4 6 1011.0 - 0.0
26/05:00pm 37.8 35.3 6.7 15 17.7 E 9 20 5 11 1011.1 - 0.0
26/04:30pm 38.0 35.7 5.9 14 18.0 SSW 7 13 4 7 1011.1 - 0.0
26/04:00pm 38.2 34.8 6.0 14 18.1 NE 13 20 7 11 1011.3 - 0.0
26/03:30pm 37.6 35.3 5.6 14 17.8 SE 7 15 4 8 1011.4 - 0.0
26/03:00pm 37.9 34.1 5.8 14 18.0 ENE 15 22 8 12 1011.7 1008.3 0.0
26/02:30pm 37.7 33.7 6.6 15 17.6 ESE 17 22 9 12 1012.1 - 0.0
26/02:00pm 37.7 33.1 5.6 14 17.9 ESE 19 32 10 17 1012.3 - 0.0
26/01:30pm 37.2 33.3 5.3 14 17.7 E 15 24 8 13 1012.7 - 0.0
26/01:00pm 37.3 33.6 6.3 15 17.5 E 15 28 8 15 1013.2 - 0.0
26/12:30pm 36.1 31.8 5.4 15 16.9 ENE 17 24 9 13 1013.6 - 0.0
26/12:00pm 36.0 31.3 6.2 16 16.6 ENE 20 28 11 15 1013.9 1010.5 0.0
26/11:30am 35.2 30.2 6.5 17 16.0 ENE 22 33 12 18 1014.4 - 0.0
26/11:00am 34.3 29.3 6.6 18 15.4 E 22 30 12 16 1014.7 - 0.0
26/10:30am 33.0 27.6 6.3 19 14.7 ENE 24 33 13 18 1014.9 - 0.0
26/10:00am 31.6 27.0 6.6 21 13.8 E 20 28 11 15 1015.2 - 0.0
26/09:30am 30.6 25.7 7.1 23 13.0 E 22 30 12 16 1015.2 - 0.0
26/09:00am 29.6 24.7 6.9 24 12.4 E 22 32 12 17 1015.2 1011.8 0.0
26/08:30am 29.6 24.0 5.6 22 12.8 E 24 33 13 18 1014.9 - 0.0
26/08:00am 28.3 23.2 5.8 24 12.0 E 22 32 12 17 1014.7 - 0.0
26/07:30am 27.2 22.0 5.5 25 11.4 E 22 32 12 17 1014.5 - 0.0
26/07:00am 27.1 21.9 5.4 25 11.4 E 22 28 12 15 1014.0 - 0.0
26/06:30am 27.5 22.2 5.1 24 11.7 E 22 30 12 16 1013.7 - 0.0
26/06:00am 27.3 23.1 5.6 25 11.5 ESE 17 24 9 13 1013.3 1009.9 0.0
26/05:30am 28.3 23.0 5.2 23 12.2 E 22 30 12 16 1013.1 - 0.0
26/05:00am 28.5 23.1 4.7 22 12.5 E 22 32 12 17 1012.9 - 0.0
26/04:30am 28.7 21.9 4.9 22 12.5 E 30 43 16 23 1012.9 - 0.0
26/04:00am 29.0 22.1 4.5 21 12.8 E 30 44 16 24 1013.0 - 0.0
26/03:30am 29.6 23.0 4.3 20 13.3 E 28 35 15 19 1013.0 - 0.0
26/03:00am 29.1 23.0 4.6 21 12.9 ESE 26 35 14 19 1013.0 1009.6 0.0
26/02:30am 29.5 23.0 4.9 21 13.0 ESE 28 35 15 19 1013.0 - 0.0
26/02:00am 29.3 23.7 5.4 22 12.7 ESE 24 32 13 17 1013.3 - 0.0
26/01:30am 29.2 24.1 6.0 23 12.5 SE 22 30 12 16 1013.5 - 0.0
26/01:00am 29.3 24.9 6.7 24 12.3 SE 19 24 10 13 1013.9 - 0.0
26/12:30am 28.7 24.7 6.7 25 11.9 SE 17 20 9 11 1014.3 - 0.0
26/12:00am 29.6 25.7 6.9 24 12.4 SE 17 20 9 11 1014.4 1011.0 0.0
 
Date/Time
CST
Temp
°C
App
Temp
°C
Dew
Point
°C
Rel
Hum
%
Delta-T
°C
Wind Press
QNH
hPa
Press
MSL
hPa
Rain since
9am
mm
Dir  Spd
km/h
Gust
km/h
Spd
kts
Gust
kts
25/11:30pm 28.3 25.0 9.6 31 10.6 SSE 17 20 9 11 1014.6 - 0.0
25/11:00pm 27.9 25.1 10.1 33 10.2 S 15 17 8 9 1014.7 - 0.0
25/10:30pm 29.0 25.7 9.7 30 11.0 S 17 24 9 13 1014.7 - 0.0
25/10:00pm 27.9 26.7 11.5 36 9.6 SSE 9 11 5 6 1014.4 - 0.0
25/09:30pm 28.2 26.9 11.3 35 9.9 SE 9 11 5 6 1014.3 - 0.0
25/09:00pm 27.7 26.0 10.0 33 10.1 E 9 9 5 5 1014.0 1010.6 0.0
25/08:30pm 29.2 27.2 10.3 31 10.9 ENE 11 13 6 7 1013.6 - 0.0
25/08:00pm 30.2 28.6 10.2 29 11.6 ENE 9 11 5 6 1013.3 - 0.0
25/07:30pm 32.7 30.4 8.9 23 13.6 NE 11 15 6 8 1013.2 - 0.0
25/07:00pm 34.0 30.3 7.9 20 14.8 E 17 24 9 13 1013.1 - 0.0
25/06:30pm 34.9 30.8 7.9 19 15.4 E 19 24 10 13 1012.9 - 0.0
25/06:00pm 34.9 31.0 8.6 20 15.2 E 19 28 10 15 1012.9 1009.5 0.0
25/05:30pm 35.0 31.5 8.7 20 15.2 E 17 24 9 13 1012.9 - 0.0
25/05:00pm 35.2 31.2 8.1 19 15.5 E 19 26 10 14 1013.0 - 0.0
25/04:30pm 35.5 32.1 9.1 20 15.4 ENE 17 32 9 17 1013.2 - 0.0
25/04:00pm 36.4 32.4 8.3 18 16.2 ENE 19 28 10 15 1013.6 - 0.0
25/03:30pm 36.3 32.9 9.0 19 15.9 E 17 30 9 16 1013.9 - 0.0
25/03:00pm 36.3 32.1 8.2 18 16.2 NE 20 32 11 17 1014.4 1011.0 0.0
25/02:30pm 36.2 32.7 8.9 19 15.9 ENE 17 26 9 14 1014.9 - 0.0
25/02:00pm 36.0 31.4 9.5 20 15.6 E 24 35 13 19 1015.4 - 0.0
25/01:30pm 35.8 30.7 9.3 20 15.5 ENE 26 39 14 21 1015.7 - 0.0
25/01:00pm 35.3 30.5 8.9 20 15.3 E 24 35 13 19 1016.1 - 0.0
25/12:30pm 35.1 29.9 8.8 20 15.2 E 26 39 14 21 1016.8 - 0.0
25/12:00pm 34.9 29.3 7.1 18 15.6 ENE 26 39 14 21 1017.0 1013.6 0.0
25/11:30am 34.3 28.6 6.6 18 15.4 E 26 37 14 20 1017.6 - 0.0
25/11:00am 33.6 27.4 6.0 18 15.2 ENE 28 41 15 22 1017.9 - 0.0
25/10:30am 32.6 26.2 5.2 18 14.8 ENE 28 39 15 21 1018.0 - 0.0
25/10:00am 32.0 25.7 5.5 19 14.3 E 28 41 15 22 1018.1 - 0.0
25/09:30am 30.5 24.4 5.0 20 13.6 E 26 37 14 20 1018.1 - 0.0
25/09:00am 29.5 24.4 6.2 23 12.6 ESE 22 35 12 19 1018.2 1014.8 0.0
25/08:30am 27.6 21.7 5.8 25 11.6 ESE 26 35 14 19 1018.2 - 0.0
25/08:00am 26.6 19.8 5.0 25 11.2 ESE 30 41 16 22 1018.0 - 0.0
25/07:30am 25.0 19.8 5.7 29 10.1 SE 22 32 12 17 1017.9 - 0.0
25/07:00am 23.9 18.8 5.8 31 9.4 SE 22 30 12 16 1017.7 - 0.0
25/06:30am 24.2 19.5 6.0 31 9.5 SE 20 28 11 15 1017.4 - 0.0
25/06:00am 25.4 20.9 6.1 29 10.2 ESE 19 24 10 13 1017.1 1013.7 0.0
25/05:30am 25.2 21.3 8.7 35 9.1 SE 19 24 10 13 1017.0 - 0.0
25/05:00am 25.6 23.2 12.8 45 7.6 ESE 17 22 9 12 1017.0 - 0.0
25/04:30am 25.4 21.7 9.3 36 9.0 SE 19 22 10 12 1016.9 - 0.0
25/04:00am 25.9 22.3 9.7 36 9.1 SE 19 22 10 12 1016.8 - 0.0
25/03:30am 26.8 24.6 12.1 40 8.6 E 15 22 8 12 1016.7 - 0.0
25/03:00am 27.6 24.4 12.0 38 9.2 E 20 28 11 15 1016.7 1013.3 0.0
25/02:30am 27.2 23.0 7.6 29 10.7 ESE 19 26 10 14 1016.7 - 0.0
25/02:00am 27.9 22.6 6.6 26 11.5 ESE 24 33 13 18 1016.7 - 0.0
25/01:30am 29.5 23.3 6.2 23 12.6 ESE 28 41 15 22 1016.6 - 0.0
25/01:00am 30.4 23.0 4.9 20 13.6 ESE 33 59 18 32 1016.3 - 0.0
25/12:30am 30.0 22.9 5.3 21 13.2 SE 32 50 17 27 1016.3 - 0.0
25/12:29am 30.2 23.1 5.5 21 13.2 SE 32 50 17 27 1016.3 - 0.0
25/12:00am 30.5 23.7 5.0 20 13.6 SE 30 44 16 24 1016.6 1013.2 0.0
 
Date/Time
CST
Temp
°C
App
Temp
°C
Dew
Point
°C
Rel
Hum
%
Delta-T
°C
Wind Press
QNH
hPa
Press
MSL
hPa
Rain since
9am
mm
Dir  Spd
km/h
Gust
km/h
Spd
kts
Gust
kts
24/11:30pm 30.5 24.6 5.7 21 13.4 SE 26 33 14 18 1016.8 - 0.0
24/11:00pm 31.1 25.1 5.5 20 13.8 SE 26 33 14 18 1016.9 - 0.0
24/10:30pm 30.5 25.7 5.7 21 13.4 SE 20 28 11 15 1017.0 - 0.0
24/10:00pm 31.0 26.2 5.4 20 13.8 SE 20 30 11 16 1016.7 - 0.0
24/09:30pm 32.2 26.7 5.7 19 14.4 SE 24 35 13 19 1016.2 - 0.0
24/09:00pm 32.2 26.7 5.7 19 14.4 SE 24 35 13 19 1015.9 1012.5 0.0
24/08:30pm 32.7 27.8 5.3 18 14.8 SE 20 30 11 16 1015.5 - 0.0
24/08:00pm 33.4 27.7 5.0 17 15.4 SE 24 37 13 20 1015.0 - 0.0
24/07:30pm 33.9 28.3 5.4 17 15.6 ESE 24 35 13 19 1014.8 - 0.0
24/07:00pm 34.6 29.1 6.0 17 15.8 SE 24 33 13 18 1014.6 - 0.0

Other Formats:

Comma delimited format used in spreadsheet applications
http://www.bom.gov.au/fwo/IDD60801/IDD60801.94321.axf

JavaScript Object Notation format (JSON) in row-major order
http://www.bom.gov.au/fwo/IDD60801/IDD60801.94321.json